Colorado Springs (COS/KCOS)

Information

Location
Colorado Springs, CO
Local Time
18:53 / 6:53 pm
GMT Time
01:53 / 1:53 am
Gates
22
No FAA reported delays
METAR KCOS 250054Z 04018G31KT 10SM SCT120 SCT220 11/00 A3003 RMK AO2 PK WND 05031/0046 WSHFT 0032 SLP116 T01110000
TAF KCOS 242320Z 2500/2524 31020G30KT P6SM SCT120 BKN220 FM250200 35012KT P6SM BKN100 BKN250 FM250500 36007KT P6SM SCT250 FM251800 15008KT P6SM SCT250